sensor_id;sensor_type;location;lat;lon;timestamp;P1;durP1;ratioP1;P2;durP2;ratioP2
29688;SDS011;16600;47.444;8.334;2023-11-19T00:00:06;3.13;;;2.75;;
29688;SDS011;16600;47.444;8.334;2023-11-19T00:02:39;4.82;;;2.75;;
29688;SDS011;16600;47.444;8.334;2023-11-19T00:05:05;3.40;;;2.60;;
29688;SDS011;16600;47.444;8.334;2023-11-19T00:07:38;3.00;;;2.70;;
29688;SDS011;16600;47.444;8.334;2023-11-19T00:10:13;3.50;;;3.10;;
29688;SDS011;16600;47.444;8.334;2023-11-19T00:12:42;4.15;;;2.85;;
29688;SDS011;16600;47.444;8.334;2023-11-19T00:15:08;5.60;;;2.67;;
29688;SDS011;16600;47.444;8.334;2023-11-19T00:17:37;2.75;;;2.40;;
29688;SDS011;16600;47.444;8.334;2023-11-19T00:20:04;2.65;;;2.45;;
29688;SDS011;16600;47.444;8.334;2023-11-19T00:22:31;2.88;;;2.67;;
29688;SDS011;16600;47.444;8.334;2023-11-19T00:24:58;4.25;;;2.17;;
29688;SDS011;16600;47.444;8.334;2023-11-19T00:27:24;2.97;;;2.67;;
29688;SDS011;16600;47.444;8.334;2023-11-19T00:29:51;2.78;;;2.47;;
29688;SDS011;16600;47.444;8.334;2023-11-19T00:32:17;2.55;;;2.33;;
29688;SDS011;16600;47.444;8.334;2023-11-19T00:34:47;2.35;;;2.15;;
29688;SDS011;16600;47.444;8.334;2023-11-19T00:37:16;3.83;;;2.47;;
29688;SDS011;16600;47.444;8.334;2023-11-19T00:39:45;6.82;;;2.10;;
29688;SDS011;16600;47.444;8.334;2023-11-19T00:42:11;3.92;;;2.60;;
29688;SDS011;16600;47.444;8.334;2023-11-19T00:44:38;2.55;;;2.35;;
29688;SDS011;16600;47.444;8.334;2023-11-19T00:49:30;4.72;;;2.30;;
29688;SDS011;16600;47.444;8.334;2023-11-19T00:52:00;2.90;;;2.60;;
29688;SDS011;16600;47.444;8.334;2023-11-19T00:54:27;3.55;;;2.50;;
29688;SDS011;16600;47.444;8.334;2023-11-19T00:56:54;3.03;;;2.30;;
29688;SDS011;16600;47.444;8.334;2023-11-19T00:59:21;2.92;;;2.30;;
29688;SDS011;16600;47.444;8.334;2023-11-19T01:01:47;2.58;;;2.38;;
29688;SDS011;16600;47.444;8.334;2023-11-19T01:04:19;3.00;;;2.40;;
29688;SDS011;16600;47.444;8.334;2023-11-19T01:06:50;2.40;;;1.98;;
29688;SDS011;16600;47.444;8.334;2023-11-19T01:09:19;2.40;;;2.20;;
29688;SDS011;16600;47.444;8.334;2023-11-19T01:11:49;3.45;;;2.30;;
29688;SDS011;16600;47.444;8.334;2023-11-19T01:14:15;2.22;;;2.03;;
29688;SDS011;16600;47.444;8.334;2023-11-19T01:16:43;4.22;;;2.53;;
29688;SDS011;16600;47.444;8.334;2023-11-19T01:19:11;2.60;;;2.40;;
29688;SDS011;16600;47.444;8.334;2023-11-19T01:21:37;2.80;;;2.30;;
29688;SDS011;16600;47.444;8.334;2023-11-19T01:26:31;4.28;;;2.63;;
29688;SDS011;16600;47.444;8.334;2023-11-19T01:31:23;3.33;;;2.58;;
29688;SDS011;16600;47.444;8.334;2023-11-19T01:33:52;3.88;;;2.67;;
29688;SDS011;16600;47.444;8.334;2023-11-19T01:36:20;2.95;;;2.58;;
29688;SDS011;16600;47.444;8.334;2023-11-19T01:38:52;3.92;;;2.63;;
29688;SDS011;16600;47.444;8.334;2023-11-19T01:43:47;3.60;;;3.22;;
29688;SDS011;16600;47.444;8.334;2023-11-19T01:46:13;2.90;;;2.28;;
29688;SDS011;16600;47.444;8.334;2023-11-19T01:48:41;3.25;;;2.95;;
29688;SDS011;16600;47.444;8.334;2023-11-19T01:51:08;2.85;;;2.47;;
29688;SDS011;16600;47.444;8.334;2023-11-19T01:53:36;4.13;;;3.13;;
29688;SDS011;16600;47.444;8.334;2023-11-19T01:56:03;2.75;;;2.55;;
29688;SDS011;16600;47.444;8.334;2023-11-19T01:58:37;3.30;;;2.58;;
29688;SDS011;16600;47.444;8.334;2023-11-19T02:01:07;3.70;;;2.92;;
29688;SDS011;16600;47.444;8.334;2023-11-19T02:03:34;9.30;;;2.90;;
29688;SDS011;16600;47.444;8.334;2023-11-19T02:06:01;3.13;;;2.83;;
29688;SDS011;16600;47.444;8.334;2023-11-19T02:08:27;4.13;;;3.42;;
29688;SDS011;16600;47.444;8.334;2023-11-19T02:10:53;3.33;;;3.03;;
29688;SDS011;16600;47.444;8.334;2023-11-19T02:13:26;3.83;;;3.50;;
29688;SDS011;16600;47.444;8.334;2023-11-19T02:15:53;3.92;;;3.00;;
29688;SDS011;16600;47.444;8.334;2023-11-19T02:18:23;4.60;;;4.05;;
29688;SDS011;16600;47.444;8.334;2023-11-19T02:20:50;3.78;;;3.45;;
29688;SDS011;16600;47.444;8.334;2023-11-19T02:23:22;4.22;;;3.45;;
29688;SDS011;16600;47.444;8.334;2023-11-19T02:28:38;4.03;;;3.63;;
29688;SDS011;16600;47.444;8.334;2023-11-19T02:31:04;7.18;;;4.18;;
29688;SDS011;16600;47.444;8.334;2023-11-19T02:33:32;5.70;;;4.57;;
29688;SDS011;16600;47.444;8.334;2023-11-19T02:35:58;8.02;;;5.15;;
29688;SDS011;16600;47.444;8.334;2023-11-19T02:40:52;5.63;;;4.80;;
29688;SDS011;16600;47.444;8.334;2023-11-19T02:43:21;5.88;;;4.60;;
29688;SDS011;16600;47.444;8.334;2023-11-19T02:45:47;10.45;;;5.25;;
29688;SDS011;16600;47.444;8.334;2023-11-19T02:48:13;15.85;;;6.68;;
29688;SDS011;16600;47.444;8.334;2023-11-19T02:50:41;9.32;;;7.32;;
29688;SDS011;16600;47.444;8.334;2023-11-19T02:53:07;11.13;;;8.68;;
29688;SDS011;16600;47.444;8.334;2023-11-19T02:55:34;10.93;;;7.30;;
29688;SDS011;16600;47.444;8.334;2023-11-19T02:58:04;8.77;;;7.88;;
29688;SDS011;16600;47.444;8.334;2023-11-19T03:00:45;8.60;;;7.18;;
29688;SDS011;16600;47.444;8.334;2023-11-19T03:03:20;17.55;;;8.13;;
29688;SDS011;16600;47.444;8.334;2023-11-19T03:05:48;11.80;;;9.07;;
29688;SDS011;16600;47.444;8.334;2023-11-19T03:08:17;9.13;;;8.20;;
29688;SDS011;16600;47.444;8.334;2023-11-19T03:10:47;11.73;;;9.60;;
29688;SDS011;16600;47.444;8.334;2023-11-19T03:13:13;13.07;;;10.40;;
29688;SDS011;16600;47.444;8.334;2023-11-19T03:15:40;18.95;;;14.20;;
29688;SDS011;16600;47.444;8.334;2023-11-19T03:18:06;9.20;;;8.20;;
29688;SDS011;16600;47.444;8.334;2023-11-19T03:20:33;10.10;;;9.10;;
29688;SDS011;16600;47.444;8.334;2023-11-19T03:22:59;9.75;;;8.73;;
29688;SDS011;16600;47.444;8.334;2023-11-19T03:25:27;11.27;;;10.18;;
29688;SDS011;16600;47.444;8.334;2023-11-19T03:28:00;11.25;;;10.02;;
29688;SDS011;16600;47.444;8.334;2023-11-19T03:30:28;11.35;;;10.02;;
29688;SDS011;16600;47.444;8.334;2023-11-19T03:32:54;13.50;;;9.50;;
29688;SDS011;16600;47.444;8.334;2023-11-19T03:35:21;14.15;;;11.32;;
29688;SDS011;16600;47.444;8.334;2023-11-19T03:37:47;9.98;;;8.10;;
29688;SDS011;16600;47.444;8.334;2023-11-19T03:40:13;13.05;;;10.88;;
29688;SDS011;16600;47.444;8.334;2023-11-19T03:42:40;13.40;;;7.07;;
29688;SDS011;16600;47.444;8.334;2023-11-19T03:45:06;11.45;;;9.63;;
29688;SDS011;16600;47.444;8.334;2023-11-19T03:47:38;8.68;;;7.72;;
29688;SDS011;16600;47.444;8.334;2023-11-19T03:50:06;9.30;;;8.23;;
29688;SDS011;16600;47.444;8.334;2023-11-19T03:52:33;8.02;;;7.13;;
29688;SDS011;16600;47.444;8.334;2023-11-19T03:57:27;9.50;;;7.60;;
29688;SDS011;16600;47.444;8.334;2023-11-19T04:00:01;20.63;;;7.63;;
29688;SDS011;16600;47.444;8.334;2023-11-19T04:02:38;10.55;;;7.60;;
29688;SDS011;16600;47.444;8.334;2023-11-19T04:05:05;7.32;;;5.97;;
29688;SDS011;16600;47.444;8.334;2023-11-19T04:07:35;6.57;;;5.90;;
29688;SDS011;16600;47.444;8.334;2023-11-19T04:10:02;9.98;;;4.75;;
29688;SDS011;16600;47.444;8.334;2023-11-19T04:12:29;6.00;;;5.05;;
29688;SDS011;16600;47.444;8.334;2023-11-19T04:14:55;8.48;;;6.70;;
29688;SDS011;16600;47.444;8.334;2023-11-19T04:17:21;7.78;;;6.47;;
29688;SDS011;16600;47.444;8.334;2023-11-19T04:19:51;7.22;;;6.05;;
29688;SDS011;16600;47.444;8.334;2023-11-19T04:22:21;6.43;;;5.35;;
29688;SDS011;16600;47.444;8.334;2023-11-19T04:24:47;7.80;;;5.35;;
29688;SDS011;16600;47.444;8.334;2023-11-19T04:27:16;9.27;;;6.03;;
29688;SDS011;16600;47.444;8.334;2023-11-19T04:29:45;10.02;;;6.88;;
29688;SDS011;16600;47.444;8.334;2023-11-19T04:32:19;7.32;;;6.13;;
29688;SDS011;16600;47.444;8.334;2023-11-19T04:34:48;8.73;;;5.75;;
29688;SDS011;16600;47.444;8.334;2023-11-19T04:37:17;9.18;;;6.93;;
29688;SDS011;16600;47.444;8.334;2023-11-19T04:39:46;6.57;;;5.88;;
29688;SDS011;16600;47.444;8.334;2023-11-19T04:42:12;5.40;;;4.97;;
29688;SDS011;16600;47.444;8.334;2023-11-19T04:44:42;7.75;;;5.88;;
29688;SDS011;16600;47.444;8.334;2023-11-19T04:47:11;6.50;;;5.85;;
29688;SDS011;16600;47.444;8.334;2023-11-19T04:49:41;7.65;;;6.85;;
29688;SDS011;16600;47.444;8.334;2023-11-19T04:52:09;6.35;;;5.30;;
29688;SDS011;16600;47.444;8.334;2023-11-19T04:54:43;6.00;;;4.47;;
29688;SDS011;16600;47.444;8.334;2023-11-19T04:57:10;6.78;;;5.72;;
29688;SDS011;16600;47.444;8.334;2023-11-19T04:59:38;5.38;;;4.85;;
29688;SDS011;16600;47.444;8.334;2023-11-19T05:03:02;7.53;;;5.40;;
29688;SDS011;16600;47.444;8.334;2023-11-19T05:05:31;12.80;;;5.93;;
29688;SDS011;16600;47.444;8.334;2023-11-19T05:07:57;9.32;;;8.43;;
29688;SDS011;16600;47.444;8.334;2023-11-19T05:12:58;9.55;;;6.53;;
29688;SDS011;16600;47.444;8.334;2023-11-19T05:15:24;8.43;;;6.80;;
29688;SDS011;16600;47.444;8.334;2023-11-19T05:20:16;6.65;;;5.43;;
29688;SDS011;16600;47.444;8.334;2023-11-19T05:22:42;5.88;;;5.38;;
29688;SDS011;16600;47.444;8.334;2023-11-19T05:25:08;15.93;;;7.40;;
29688;SDS011;16600;47.444;8.334;2023-11-19T05:27:36;9.75;;;8.43;;
29688;SDS011;16600;47.444;8.334;2023-11-19T05:30:02;6.47;;;5.90;;
29688;SDS011;16600;47.444;8.334;2023-11-19T05:32:33;13.82;;;7.65;;
29688;SDS011;16600;47.444;8.334;2023-11-19T05:35:02;17.65;;;5.25;;
29688;SDS011;16600;47.444;8.334;2023-11-19T05:37:29;15.57;;;7.00;;
29688;SDS011;16600;47.444;8.334;2023-11-19T05:39:55;6.97;;;6.30;;
29688;SDS011;16600;47.444;8.334;2023-11-19T05:42:21;15.45;;;9.15;;
29688;SDS011;16600;47.444;8.334;2023-11-19T05:44:47;7.35;;;6.53;;
29688;SDS011;16600;47.444;8.334;2023-11-19T05:47:13;7.28;;;6.68;;
29688;SDS011;16600;47.444;8.334;2023-11-19T05:49:39;8.07;;;6.90;;
29688;SDS011;16600;47.444;8.334;2023-11-19T05:52:06;9.60;;;7.85;;
29688;SDS011;16600;47.444;8.334;2023-11-19T05:54:33;11.10;;;7.82;;
29688;SDS011;16600;47.444;8.334;2023-11-19T05:57:04;8.95;;;7.15;;
29688;SDS011;16600;47.444;8.334;2023-11-19T05:59:30;6.45;;;5.95;;
29688;SDS011;16600;47.444;8.334;2023-11-19T06:01:59;5.78;;;5.18;;
29688;SDS011;16600;47.444;8.334;2023-11-19T06:04:28;7.35;;;5.50;;
29688;SDS011;16600;47.444;8.334;2023-11-19T06:06:54;7.68;;;6.78;;
29688;SDS011;16600;47.444;8.334;2023-11-19T06:11:46;6.75;;;5.90;;
29688;SDS011;16600;47.444;8.334;2023-11-19T06:14:12;7.32;;;6.55;;
29688;SDS011;16600;47.444;8.334;2023-11-19T06:16:38;11.57;;;6.72;;
29688;SDS011;16600;47.444;8.334;2023-11-19T06:19:05;7.88;;;5.22;;
29688;SDS011;16600;47.444;8.334;2023-11-19T06:21:31;8.70;;;6.32;;
29688;SDS011;16600;47.444;8.334;2023-11-19T06:24:02;5.00;;;4.50;;
29688;SDS011;16600;47.444;8.334;2023-11-19T06:26:29;7.65;;;6.13;;
29688;SDS011;16600;47.444;8.334;2023-11-19T06:31:21;6.13;;;5.30;;
29688;SDS011;16600;47.444;8.334;2023-11-19T06:33:50;6.00;;;5.13;;
29688;SDS011;16600;47.444;8.334;2023-11-19T06:36:16;5.43;;;4.65;;
29688;SDS011;16600;47.444;8.334;2023-11-19T06:38:43;5.07;;;4.68;;
29688;SDS011;16600;47.444;8.334;2023-11-19T06:41:09;4.88;;;4.38;;
29688;SDS011;16600;47.444;8.334;2023-11-19T06:43:36;6.38;;;5.45;;
29688;SDS011;16600;47.444;8.334;2023-11-19T06:46:02;5.55;;;4.70;;
29688;SDS011;16600;47.444;8.334;2023-11-19T06:48:31;4.45;;;3.80;;
29688;SDS011;16600;47.444;8.334;2023-11-19T06:50:58;6.68;;;5.65;;
29688;SDS011;16600;47.444;8.334;2023-11-19T06:53:25;4.53;;;4.13;;
29688;SDS011;16600;47.444;8.334;2023-11-19T06:55:54;4.68;;;4.13;;
29688;SDS011;16600;47.444;8.334;2023-11-19T06:58:20;5.80;;;5.22;;
29688;SDS011;16600;47.444;8.334;2023-11-19T07:00:46;6.60;;;3.80;;
29688;SDS011;16600;47.444;8.334;2023-11-19T07:03:14;5.13;;;4.63;;
29688;SDS011;16600;47.444;8.334;2023-11-19T07:05:41;4.28;;;3.85;;
29688;SDS011;16600;47.444;8.334;2023-11-19T07:08:08;4.22;;;3.83;;
29688;SDS011;16600;47.444;8.334;2023-11-19T07:10:34;4.43;;;4.03;;
29688;SDS011;16600;47.444;8.334;2023-11-19T07:13:03;4.53;;;4.13;;
29688;SDS011;16600;47.444;8.334;2023-11-19T07:15:31;5.53;;;4.07;;
29688;SDS011;16600;47.444;8.334;2023-11-19T07:17:58;4.55;;;4.05;;
29688;SDS011;16600;47.444;8.334;2023-11-19T07:20:25;5.80;;;3.55;;
29688;SDS011;16600;47.444;8.334;2023-11-19T07:22:54;4.18;;;3.78;;
29688;SDS011;16600;47.444;8.334;2023-11-19T07:25:25;4.40;;;4.00;;
29688;SDS011;16600;47.444;8.334;2023-11-19T07:27:52;3.83;;;3.53;;
29688;SDS011;16600;47.444;8.334;2023-11-19T07:30:21;4.13;;;3.83;;
29688;SDS011;16600;47.444;8.334;2023-11-19T07:32:48;5.95;;;4.35;;
29688;SDS011;16600;47.444;8.334;2023-11-19T07:35:14;5.15;;;4.43;;
29688;SDS011;16600;47.444;8.334;2023-11-19T07:37:41;4.32;;;3.92;;
29688;SDS011;16600;47.444;8.334;2023-11-19T07:40:08;3.65;;;3.35;;
29688;SDS011;16600;47.444;8.334;2023-11-19T07:42:36;4.50;;;4.10;;
29688;SDS011;16600;47.444;8.334;2023-11-19T07:45:03;4.53;;;3.70;;
29688;SDS011;16600;47.444;8.334;2023-11-19T07:47:34;3.58;;;3.28;;
29688;SDS011;16600;47.444;8.334;2023-11-19T07:50:02;9.93;;;3.75;;
29688;SDS011;16600;47.444;8.334;2023-11-19T07:52:29;5.80;;;3.70;;
29688;SDS011;16600;47.444;8.334;2023-11-19T07:54:58;4.00;;;3.53;;
29688;SDS011;16600;47.444;8.334;2023-11-19T07:57:25;4.47;;;3.35;;
29688;SDS011;16600;47.444;8.334;2023-11-19T07:59:53;3.53;;;3.22;;
29688;SDS011;16600;47.444;8.334;2023-11-19T08:02:38;4.30;;;3.70;;
29688;SDS011;16600;47.444;8.334;2023-11-19T08:05:04;3.45;;;3.17;;
29688;SDS011;16600;47.444;8.334;2023-11-19T08:07:34;2.92;;;2.67;;
29688;SDS011;16600;47.444;8.334;2023-11-19T08:10:04;3.40;;;3.08;;
29688;SDS011;16600;47.444;8.334;2023-11-19T08:12:31;3.90;;;3.58;;
29688;SDS011;16600;47.444;8.334;2023-11-19T08:14:57;3.58;;;3.28;;
29688;SDS011;16600;47.444;8.334;2023-11-19T08:17:24;3.33;;;2.80;;
29688;SDS011;16600;47.444;8.334;2023-11-19T08:19:56;4.07;;;2.72;;
29688;SDS011;16600;47.444;8.334;2023-11-19T08:22:23;3.00;;;2.35;;
29688;SDS011;16600;47.444;8.334;2023-11-19T08:24:49;2.83;;;2.55;;
29688;SDS011;16600;47.444;8.334;2023-11-19T08:27:21;2.88;;;2.58;;
29688;SDS011;16600;47.444;8.334;2023-11-19T08:29:55;2.80;;;2.50;;
29688;SDS011;16600;47.444;8.334;2023-11-19T08:32:27;3.83;;;2.65;;
29688;SDS011;16600;47.444;8.334;2023-11-19T08:34:53;3.58;;;2.72;;
29688;SDS011;16600;47.444;8.334;2023-11-19T08:37:22;4.35;;;2.53;;
29688;SDS011;16600;47.444;8.334;2023-11-19T08:39:49;5.13;;;2.30;;
29688;SDS011;16600;47.444;8.334;2023-11-19T08:42:18;2.80;;;2.15;;
29688;SDS011;16600;47.444;8.334;2023-11-19T08:44:56;2.78;;;2.55;;
29688;SDS011;16600;47.444;8.334;2023-11-19T08:47:22;2.95;;;2.65;;
29688;SDS011;16600;47.444;8.334;2023-11-19T08:49:51;2.83;;;2.58;;
29688;SDS011;16600;47.444;8.334;2023-11-19T08:52:18;2.33;;;2.13;;
29688;SDS011;16600;47.444;8.334;2023-11-19T08:54:45;3.78;;;2.63;;
29688;SDS011;16600;47.444;8.334;2023-11-19T08:57:11;2.53;;;2.33;;
29688;SDS011;16600;47.444;8.334;2023-11-19T08:59:37;2.40;;;2.20;;
29688;SDS011;16600;47.444;8.334;2023-11-19T09:02:05;2.60;;;2.30;;
29688;SDS011;16600;47.444;8.334;2023-11-19T09:04:31;2.80;;;2.30;;
29688;SDS011;16600;47.444;8.334;2023-11-19T09:09:22;2.60;;;2.20;;
29688;SDS011;16600;47.444;8.334;2023-11-19T09:11:51;4.30;;;2.20;;
29688;SDS011;16600;47.444;8.334;2023-11-19T09:14:21;3.72;;;2.10;;
29688;SDS011;16600;47.444;8.334;2023-11-19T09:16:56;3.13;;;2.30;;
29688;SDS011;16600;47.444;8.334;2023-11-19T09:19:26;3.42;;;3.03;;
29688;SDS011;16600;47.444;8.334;2023-11-19T09:21:52;5.22;;;3.83;;
29688;SDS011;16600;47.444;8.334;2023-11-19T09:24:22;2.50;;;2.30;;
29688;SDS011;16600;47.444;8.334;2023-11-19T09:26:54;2.17;;;1.98;;
29688;SDS011;16600;47.444;8.334;2023-11-19T09:29:24;2.45;;;2.22;;
29688;SDS011;16600;47.444;8.334;2023-11-19T09:31:51;2.47;;;2.28;;
29688;SDS011;16600;47.444;8.334;2023-11-19T09:34:17;3.60;;;2.67;;
29688;SDS011;16600;47.444;8.334;2023-11-19T09:36:46;5.47;;;2.00;;
29688;SDS011;16600;47.444;8.334;2023-11-19T09:41:38;7.30;;;3.70;;
29688;SDS011;16600;47.444;8.334;2023-11-19T09:46:33;2.25;;;2.05;;
29688;SDS011;16600;47.444;8.334;2023-11-19T09:48:59;3.28;;;2.03;;
29688;SDS011;16600;47.444;8.334;2023-11-19T09:51:30;1.90;;;1.67;;
29688;SDS011;16600;47.444;8.334;2023-11-19T09:53:56;2.15;;;1.95;;
29688;SDS011;16600;47.444;8.334;2023-11-19T09:58:47;3.05;;;2.22;;
29688;SDS011;16600;47.444;8.334;2023-11-19T10:03:43;1.88;;;1.65;;
29688;SDS011;16600;47.444;8.334;2023-11-19T10:06:15;2.63;;;1.93;;
29688;SDS011;16600;47.444;8.334;2023-11-19T10:08:41;2.05;;;1.65;;
29688;SDS011;16600;47.444;8.334;2023-11-19T10:11:08;5.50;;;3.25;;
29688;SDS011;16600;47.444;8.334;2023-11-19T10:13:38;3.00;;;2.28;;
29688;SDS011;16600;47.444;8.334;2023-11-19T10:16:13;2.70;;;1.90;;
29688;SDS011;16600;47.444;8.334;2023-11-19T10:18:44;1.85;;;1.67;;
29688;SDS011;16600;47.444;8.334;2023-11-19T10:21:14;3.80;;;1.50;;
29688;SDS011;16600;47.444;8.334;2023-11-19T10:23:53;3.25;;;2.28;;
29688;SDS011;16600;47.444;8.334;2023-11-19T10:26:19;4.30;;;2.38;;
29688;SDS011;16600;47.444;8.334;2023-11-19T10:28:46;2.10;;;1.92;;
29688;SDS011;16600;47.444;8.334;2023-11-19T10:31:13;3.80;;;1.83;;
29688;SDS011;16600;47.444;8.334;2023-11-19T10:33:39;2.22;;;1.85;;
29688;SDS011;16600;47.444;8.334;2023-11-19T10:36:06;3.60;;;2.70;;
29688;SDS011;16600;47.444;8.334;2023-11-19T10:38:35;2.40;;;2.20;;
29688;SDS011;16600;47.444;8.334;2023-11-19T10:41:02;4.05;;;1.85;;
29688;SDS011;16600;47.444;8.334;2023-11-19T10:43:31;3.03;;;2.40;;
29688;SDS011;16600;47.444;8.334;2023-11-19T10:46:09;2.97;;;2.08;;
29688;SDS011;16600;47.444;8.334;2023-11-19T10:48:36;2.67;;;1.88;;
29688;SDS011;16600;47.444;8.334;2023-11-19T10:51:02;4.18;;;2.28;;
29688;SDS011;16600;47.444;8.334;2023-11-19T10:53:35;2.55;;;2.28;;
29688;SDS011;16600;47.444;8.334;2023-11-19T10:56:01;6.65;;;2.25;;
29688;SDS011;16600;47.444;8.334;2023-11-19T10:58:28;3.30;;;1.80;;
29688;SDS011;16600;47.444;8.334;2023-11-19T11:03:02;2.50;;;1.90;;
29688;SDS011;16600;47.444;8.334;2023-11-19T11:05:32;1.80;;;1.70;;
29688;SDS011;16600;47.444;8.334;2023-11-19T11:08:01;1.95;;;1.50;;
29688;SDS011;16600;47.444;8.334;2023-11-19T11:10:29;2.13;;;1.58;;
29688;SDS011;16600;47.444;8.334;2023-11-19T11:13:06;1.83;;;1.73;;
29688;SDS011;16600;47.444;8.334;2023-11-19T11:15:33;1.85;;;1.50;;
29688;SDS011;16600;47.444;8.334;2023-11-19T11:18:01;3.22;;;2.05;;
29688;SDS011;16600;47.444;8.334;2023-11-19T11:20:31;2.38;;;1.73;;
29688;SDS011;16600;47.444;8.334;2023-11-19T11:23:04;1.98;;;1.70;;
29688;SDS011;16600;47.444;8.334;2023-11-19T11:25:40;3.10;;;1.98;;
29688;SDS011;16600;47.444;8.334;2023-11-19T11:30:46;3.05;;;1.65;;
29688;SDS011;16600;47.444;8.334;2023-11-19T11:38:18;1.70;;;1.40;;
29688;SDS011;16600;47.444;8.334;2023-11-19T11:41:14;2.92;;;1.70;;
29688;SDS011;16600;47.444;8.334;2023-11-19T11:49:08;1.83;;;1.48;;
29688;SDS011;16600;47.444;8.334;2023-11-19T11:54:33;2.88;;;1.60;;
29688;SDS011;16600;47.444;8.334;2023-11-19T11:57:01;3.17;;;1.77;;
29688;SDS011;16600;47.444;8.334;2023-11-19T12:02:16;1.50;;;1.40;;
29688;SDS011;16600;47.444;8.334;2023-11-19T12:07:12;1.92;;;1.20;;
29688;SDS011;16600;47.444;8.334;2023-11-19T12:09:49;1.40;;;1.08;;
29688;SDS011;16600;47.444;8.334;2023-11-19T12:19:56;1.25;;;1.15;;
29688;SDS011;16600;47.444;8.334;2023-11-19T12:22:25;1.77;;;1.17;;
29688;SDS011;16600;47.444;8.334;2023-11-19T12:24:54;1.00;;;0.95;;
29688;SDS011;16600;47.444;8.334;2023-11-19T12:27:20;0.90;;;0.90;;
29688;SDS011;16600;47.444;8.334;2023-11-19T12:29:50;2.60;;;1.38;;
29688;SDS011;16600;47.444;8.334;2023-11-19T12:32:16;1.20;;;1.00;;
29688;SDS011;16600;47.444;8.334;2023-11-19T12:34:42;2.20;;;1.23;;
29688;SDS011;16600;47.444;8.334;2023-11-19T12:37:15;1.70;;;1.50;;
29688;SDS011;16600;47.444;8.334;2023-11-19T12:39:42;1.58;;;1.15;;
29688;SDS011;16600;47.444;8.334;2023-11-19T12:42:08;2.42;;;1.33;;
29688;SDS011;16600;47.444;8.334;2023-11-19T12:44:35;1.60;;;1.20;;
29688;SDS011;16600;47.444;8.334;2023-11-19T12:47:01;2.17;;;1.33;;
29688;SDS011;16600;47.444;8.334;2023-11-19T12:49:27;2.03;;;1.20;;
29688;SDS011;16600;47.444;8.334;2023-11-19T12:51:54;1.52;;;1.30;;
29688;SDS011;16600;47.444;8.334;2023-11-19T12:54:20;2.55;;;1.27;;
29688;SDS011;16600;47.444;8.334;2023-11-19T12:56:52;2.55;;;1.40;;
29688;SDS011;16600;47.444;8.334;2023-11-19T12:59:19;1.10;;;1.00;;
29688;SDS011;16600;47.444;8.334;2023-11-19T13:01:54;1.10;;;1.05;;
29688;SDS011;16600;47.444;8.334;2023-11-19T13:04:21;4.50;;;1.73;;
29688;SDS011;16600;47.444;8.334;2023-11-19T13:06:47;2.05;;;1.02;;
29688;SDS011;16600;47.444;8.334;2023-11-19T13:11:48;2.10;;;1.42;;
29688;SDS011;16600;47.444;8.334;2023-11-19T13:14:14;3.80;;;1.27;;
29688;SDS011;16600;47.444;8.334;2023-11-19T13:16:40;2.38;;;1.10;;
29688;SDS011;16600;47.444;8.334;2023-11-19T13:19:06;1.48;;;1.17;;
29688;SDS011;16600;47.444;8.334;2023-11-19T13:21:31;1.50;;;1.40;;
29688;SDS011;16600;47.444;8.334;2023-11-19T13:23:58;1.58;;;1.13;;
29688;SDS011;16600;47.444;8.334;2023-11-19T13:26:23;4.85;;;1.13;;
29688;SDS011;16600;47.444;8.334;2023-11-19T13:28:49;1.70;;;1.13;;
29688;SDS011;16600;47.444;8.334;2023-11-19T13:31:18;4.78;;;1.48;;
29688;SDS011;16600;47.444;8.334;2023-11-19T13:33:50;1.42;;;1.23;;
29688;SDS011;16600;47.444;8.334;2023-11-19T13:36:19;1.02;;;0.95;;
29688;SDS011;16600;47.444;8.334;2023-11-19T13:38:46;1.05;;;0.90;;
29688;SDS011;16600;47.444;8.334;2023-11-19T13:41:18;1.00;;;0.90;;
29688;SDS011;16600;47.444;8.334;2023-11-19T13:43:49;1.13;;;1.00;;
29688;SDS011;16600;47.444;8.334;2023-11-19T13:46:18;1.95;;;1.38;;
29688;SDS011;16600;47.444;8.334;2023-11-19T13:48:44;2.00;;;1.20;;
29688;SDS011;16600;47.444;8.334;2023-11-19T13:51:13;1.23;;;1.10;;
29688;SDS011;16600;47.444;8.334;2023-11-19T13:53:39;2.70;;;1.00;;
29688;SDS011;16600;47.444;8.334;2023-11-19T13:56:08;1.90;;;1.10;;
29688;SDS011;16600;47.444;8.334;2023-11-19T13:58:35;1.20;;;0.90;;
29688;SDS011;16600;47.444;8.334;2023-11-19T14:01:04;2.70;;;1.10;;
29688;SDS011;16600;47.444;8.334;2023-11-19T14:03:31;2.25;;;0.90;;
29688;SDS011;16600;47.444;8.334;2023-11-19T14:06:00;1.65;;;1.10;;
29688;SDS011;16600;47.444;8.334;2023-11-19T14:08:26;1.02;;;0.98;;
29688;SDS011;16600;47.444;8.334;2023-11-19T14:10:52;0.80;;;0.80;;
29688;SDS011;16600;47.444;8.334;2023-11-19T14:13:21;1.63;;;1.33;;
29688;SDS011;16600;47.444;8.334;2023-11-19T14:15:47;1.05;;;0.88;;
29688;SDS011;16600;47.444;8.334;2023-11-19T14:18:20;1.05;;;0.93;;
29688;SDS011;16600;47.444;8.334;2023-11-19T14:20:46;1.00;;;0.90;;
29688;SDS011;16600;47.444;8.334;2023-11-19T14:23:12;1.35;;;0.90;;
29688;SDS011;16600;47.444;8.334;2023-11-19T14:25:38;2.15;;;0.80;;
29688;SDS011;16600;47.444;8.334;2023-11-19T14:28:04;0.70;;;0.70;;
29688;SDS011;16600;47.444;8.334;2023-11-19T14:30:34;1.05;;;0.98;;
29688;SDS011;16600;47.444;8.334;2023-11-19T14:33:00;2.05;;;0.98;;
29688;SDS011;16600;47.444;8.334;2023-11-19T14:35:31;2.25;;;1.05;;
29688;SDS011;16600;47.444;8.334;2023-11-19T14:37:59;0.93;;;0.85;;
29688;SDS011;16600;47.444;8.334;2023-11-19T14:40:25;2.25;;;1.13;;
29688;SDS011;16600;47.444;8.334;2023-11-19T14:42:52;0.90;;;0.90;;
29688;SDS011;16600;47.444;8.334;2023-11-19T14:45:21;0.98;;;0.88;;
29688;SDS011;16600;47.444;8.334;2023-11-19T14:47:48;1.63;;;1.25;;
29688;SDS011;16600;47.444;8.334;2023-11-19T14:50:17;1.10;;;1.00;;
29688;SDS011;16600;47.444;8.334;2023-11-19T14:52:43;1.15;;;1.00;;
29688;SDS011;16600;47.444;8.334;2023-11-19T14:55:09;2.70;;;1.00;;
29688;SDS011;16600;47.444;8.334;2023-11-19T14:57:36;1.92;;;1.25;;
29688;SDS011;16600;47.444;8.334;2023-11-19T15:00:04;3.28;;;1.10;;
29688;SDS011;16600;47.444;8.334;2023-11-19T15:02:39;1.42;;;1.20;;
29688;SDS011;16600;47.444;8.334;2023-11-19T15:05:05;0.90;;;0.90;;
29688;SDS011;16600;47.444;8.334;2023-11-19T15:07:31;2.45;;;1.25;;
29688;SDS011;16600;47.444;8.334;2023-11-19T15:09:57;1.67;;;1.25;;
29688;SDS011;16600;47.444;8.334;2023-11-19T15:14:49;2.05;;;0.90;;
29688;SDS011;16600;47.444;8.334;2023-11-19T15:17:16;0.95;;;0.90;;
29688;SDS011;16600;47.444;8.334;2023-11-19T15:19:41;0.85;;;0.85;;
29688;SDS011;16600;47.444;8.334;2023-11-19T15:22:11;2.78;;;1.13;;
29688;SDS011;16600;47.444;8.334;2023-11-19T15:24:38;3.00;;;1.42;;
29688;SDS011;16600;47.444;8.334;2023-11-19T15:27:05;2.17;;;1.20;;
29688;SDS011;16600;47.444;8.334;2023-11-19T15:29:35;1.85;;;1.40;;
29688;SDS011;16600;47.444;8.334;2023-11-19T15:32:03;0.98;;;0.85;;
29688;SDS011;16600;47.444;8.334;2023-11-19T15:34:29;4.28;;;2.45;;
29688;SDS011;16600;47.444;8.334;2023-11-19T15:36:55;1.10;;;1.00;;
29688;SDS011;16600;47.444;8.334;2023-11-19T15:41:47;1.75;;;1.40;;
29688;SDS011;16600;47.444;8.334;2023-11-19T15:44:13;1.20;;;1.10;;
29688;SDS011;16600;47.444;8.334;2023-11-19T15:46:42;1.33;;;1.23;;
29688;SDS011;16600;47.444;8.334;2023-11-19T15:49:08;0.80;;;0.80;;
29688;SDS011;16600;47.444;8.334;2023-11-19T15:53:59;1.73;;;1.20;;
29688;SDS011;16600;47.444;8.334;2023-11-19T15:56:25;2.45;;;1.05;;
29688;SDS011;16600;47.444;8.334;2023-11-19T15:58:54;0.95;;;0.95;;
29688;SDS011;16600;47.444;8.334;2023-11-19T16:01:20;5.95;;;0.93;;
29688;SDS011;16600;47.444;8.334;2023-11-19T16:03:50;1.02;;;0.98;;
29688;SDS011;16600;47.444;8.334;2023-11-19T16:06:21;1.65;;;0.93;;
29688;SDS011;16600;47.444;8.334;2023-11-19T16:08:48;2.28;;;1.00;;
29688;SDS011;16600;47.444;8.334;2023-11-19T16:11:19;1.40;;;1.15;;